createdAt,value
2023-05-08T00:01:25.340Z,102174.25
2023-05-08T00:03:53.013Z,102177.06
2023-05-08T00:06:19.825Z,102174.38
2023-05-08T00:08:46.365Z,102167.28
2023-05-08T00:11:12.997Z,102162.88
2023-05-08T00:13:41.328Z,102163.72
2023-05-08T00:16:12.688Z,102163.00
2023-05-08T00:18:40.147Z,102164.00
2023-05-08T00:21:07.402Z,102170.25
2023-05-08T00:23:34.408Z,102165.03
2023-05-08T00:26:01.031Z,102171.44
2023-05-08T00:28:27.850Z,102167.88
2023-05-08T00:30:54.436Z,102170.59
2023-05-08T00:33:21.025Z,102166.16
2023-05-08T00:35:47.623Z,102162.59
2023-05-08T00:38:14.145Z,102165.47
2023-05-08T00:40:41.014Z,102165.59
2023-05-08T00:43:10.044Z,102162.03
2023-05-08T00:45:39.349Z,102164.91
2023-05-08T00:48:07.421Z,102164.06
2023-05-08T00:50:34.210Z,102167.72
2023-05-08T00:53:03.860Z,102173.13
2023-05-08T00:55:32.063Z,102161.66
2023-05-08T00:57:58.840Z,102167.03
2023-05-08T01:00:25.917Z,102163.63
2023-05-08T01:02:52.609Z,102160.06
2023-05-08T01:05:19.316Z,102164.63
2023-05-08T01:07:46.230Z,102164.63
2023-05-08T01:10:12.887Z,102165.63
2023-05-08T01:13:11.588Z,102165.78
2023-05-08T01:15:50.722Z,102165.78
2023-05-08T01:18:23.194Z,102172.16
2023-05-08T01:20:59.583Z,102167.78
2023-05-08T01:23:47.324Z,102171.47
2023-05-08T01:26:31.504Z,102165.22
2023-05-08T01:29:23.976Z,102171.47
2023-05-08T01:32:24.959Z,102176.31
2023-05-08T01:35:00.508Z,102171.75
2023-05-08T01:37:37.967Z,102174.47
2023-05-08T01:40:34.001Z,102168.22
2023-05-08T01:43:05.318Z,102169.22
2023-05-08T01:45:40.407Z,102172.03
2023-05-08T01:48:13.760Z,102176.59
2023-05-08T01:50:47.598Z,102169.50
2023-05-08T01:53:29.517Z,102170.50
2023-05-08T01:56:05.450Z,102172.34
2023-05-08T01:58:34.443Z,102169.78
2023-05-08T02:01:02.338Z,102172.47
2023-05-08T02:03:31.844Z,102169.94
2023-05-08T02:06:00.632Z,102170.94
2023-05-08T02:08:29.826Z,102169.09
2023-05-08T02:10:59.006Z,102169.22
2023-05-08T02:13:27.519Z,102169.38
2023-05-08T02:15:56.397Z,102171.22
2023-05-08T02:18:25.946Z,102171.22
2023-05-08T02:20:54.394Z,102166.97
2023-05-08T02:23:23.555Z,102169.81
2023-05-08T02:25:51.796Z,102179.75
2023-05-08T02:28:19.664Z,102188.69
2023-05-08T02:30:47.430Z,102186.97
2023-05-08T02:33:15.979Z,102190.69
2023-05-08T02:35:45.006Z,102189.81
2023-05-08T02:38:12.621Z,102190.81
2023-05-08T02:40:47.473Z,102190.94
2023-05-08T02:43:14.181Z,102184.72
2023-05-08T02:45:52.325Z,102196.50
2023-05-08T02:48:24.989Z,102188.25
2023-05-08T02:51:04.807Z,102184.03
2023-05-08T02:54:10.860Z,102191.38
2023-05-08T02:56:58.256Z,102181.59
2023-05-08T02:59:50.740Z,102179.63
2023-05-08T03:02:40.721Z,102177.91
2023-05-08T03:05:15.613Z,102175.19
2023-05-08T03:07:43.366Z,102164.56
2023-05-08T03:10:16.063Z,102172.81
2023-05-08T03:12:49.821Z,102171.09
2023-05-08T03:15:24.091Z,102173.78
2023-05-08T03:17:54.949Z,102160.47
2023-05-08T03:20:24.901Z,102163.16
2023-05-08T03:22:54.163Z,102157.75
2023-05-08T03:25:21.434Z,102161.59
2023-05-08T03:27:49.089Z,102160.72
2023-05-08T03:30:16.965Z,102160.72
2023-05-08T03:32:46.245Z,102158.16
2023-05-08T03:35:14.726Z,102156.47
2023-05-08T03:37:42.714Z,102151.06
2023-05-08T03:40:09.816Z,102153.03
2023-05-08T03:42:38.473Z,102153.91
2023-05-08T03:45:07.152Z,102152.19
2023-05-08T03:47:35.914Z,102156.75
2023-05-08T03:50:03.059Z,102155.91
2023-05-08T03:52:30.320Z,102150.63
2023-05-08T03:54:56.855Z,102159.72
2023-05-08T03:57:30.713Z,102160.72
2023-05-08T04:00:11.811Z,102166.13
2023-05-08T04:02:46.993Z,102166.25
2023-05-08T04:05:37.785Z,102163.69
2023-05-08T04:08:34.383Z,102159.31
2023-05-08T04:11:00.854Z,102169.94
2023-05-08T04:13:31.077Z,102161.00
2023-05-08T04:16:17.386Z,102165.66
2023-05-08T04:18:48.013Z,102171.78
2023-05-08T04:21:23.193Z,102179.03
2023-05-08T04:23:51.460Z,102173.75
2023-05-08T04:26:19.002Z,102176.44
2023-05-08T04:28:49.261Z,102173.75
2023-05-08T04:31:16.681Z,102172.06
2023-05-08T04:33:44.964Z,102181.72
2023-05-08T04:36:13.852Z,102181.84
2023-05-08T04:38:41.187Z,102178.31
2023-05-08T04:41:08.533Z,102189.09
2023-05-08T04:43:36.149Z,102183.69
2023-05-08T04:46:06.114Z,102186.41
2023-05-08T04:48:33.863Z,102189.94
2023-05-08T04:51:01.032Z,102195.34
2023-05-08T04:53:27.641Z,102189.94
2023-05-08T04:55:54.256Z,102195.34
2023-05-08T04:58:20.942Z,102196.22
2023-05-08T05:00:48.634Z,102199.75
2023-05-08T05:03:15.246Z,102197.06
2023-05-08T05:05:41.909Z,102198.75
2023-05-08T05:08:08.465Z,102199.75
2023-05-08T05:10:34.982Z,102206.00
2023-05-08T05:13:01.540Z,102211.38
2023-05-08T05:15:28.101Z,102214.09
2023-05-08T05:17:54.636Z,102220.31
2023-05-08T05:20:21.140Z,102214.94
2023-05-08T05:22:47.751Z,102217.63
2023-05-08T05:25:14.623Z,102215.78
2023-05-08T05:27:41.448Z,102214.94
2023-05-08T05:30:08.434Z,102210.38
2023-05-08T05:32:35.073Z,102218.31
2023-05-08T05:35:01.711Z,102218.31
2023-05-08T05:37:28.228Z,102215.63
2023-05-08T05:39:54.768Z,102221.91
2023-05-08T05:42:21.613Z,102223.72
2023-05-08T05:44:48.184Z,102223.88
2023-05-08T05:47:14.835Z,102238.06
2023-05-08T05:49:46.624Z,102224.59
2023-05-08T05:52:14.255Z,102227.28
2023-05-08T05:54:44.021Z,102230.00
2023-05-08T05:57:10.563Z,102230.00
2023-05-08T05:59:37.373Z,102237.19
2023-05-08T06:02:04.085Z,102239.03
2023-05-08T06:04:30.761Z,102246.16
2023-05-08T06:06:57.303Z,102240.78
2023-05-08T06:09:23.915Z,102244.31
2023-05-08T06:11:50.449Z,102252.41
2023-05-08T06:14:16.966Z,102241.63
2023-05-08T06:16:44.921Z,102246.88
2023-05-08T06:19:12.196Z,102248.56
2023-05-08T06:21:39.853Z,102253.94
2023-05-08T06:24:06.913Z,102263.78
2023-05-08T06:26:33.462Z,102261.91
2023-05-08T06:29:00.039Z,102255.69
2023-05-08T06:31:27.159Z,102252.97
2023-05-08T06:33:53.792Z,102253.84
2023-05-08T06:36:20.516Z,102252.84
2023-05-08T06:38:47.053Z,102255.53
2023-05-08T06:41:15.158Z,102257.22
2023-05-08T06:43:42.001Z,102254.53
2023-05-08T06:46:08.773Z,102247.28
2023-05-08T06:48:35.586Z,102242.78
2023-05-08T06:51:02.686Z,102243.63
2023-05-08T06:53:29.275Z,102242.78
2023-05-08T06:55:57.924Z,102243.63
2023-05-08T06:58:24.754Z,102249.00
2023-05-08T07:00:51.430Z,102250.75
2023-05-08T07:03:18.019Z,102246.19
2023-05-08T07:05:44.578Z,102238.09
2023-05-08T07:08:11.209Z,102247.88
2023-05-08T07:10:37.780Z,102247.88
2023-05-08T07:13:04.361Z,102245.19
2023-05-08T07:15:34.097Z,102242.50
2023-05-08T07:18:00.836Z,102244.22
2023-05-08T07:20:27.851Z,102245.06
2023-05-08T07:22:54.525Z,102242.38
2023-05-08T07:25:21.096Z,102244.06
2023-05-08T07:27:47.877Z,102245.91
2023-05-08T07:30:14.736Z,102249.31
2023-05-08T07:32:41.409Z,102251.16
2023-05-08T07:35:11.130Z,102250.16
2023-05-08T07:37:38.766Z,102250.16
2023-05-08T07:40:05.823Z,102245.66
2023-05-08T07:42:44.345Z,102243.91
2023-05-08T07:45:12.664Z,102251.03
2023-05-08T07:47:49.342Z,102248.47
2023-05-08T07:50:16.026Z,102244.75
2023-05-08T07:52:42.565Z,102242.94
2023-05-08T07:55:09.384Z,102249.19
2023-05-08T07:57:40.606Z,102245.66
2023-05-08T08:00:08.714Z,102239.38
2023-05-08T08:02:35.329Z,102238.25
2023-05-08T08:05:02.004Z,102240.09
2023-05-08T08:07:28.537Z,102240.94
2023-05-08T08:09:55.801Z,102237.25
2023-05-08T08:12:23.770Z,102231.84
2023-05-08T08:14:50.367Z,102239.81
2023-05-08T08:17:17.517Z,102231.72
2023-05-08T08:19:44.241Z,102228.03
2023-05-08T08:22:10.762Z,102228.88
2023-05-08T08:24:37.357Z,102242.38
2023-05-08T08:27:04.241Z,102246.75
2023-05-08T08:29:31.501Z,102243.09
2023-05-08T08:31:58.161Z,102250.19
2023-05-08T08:34:24.885Z,102245.47
2023-05-08T08:36:51.489Z,102238.22
2023-05-08T08:39:17.965Z,102243.50
2023-05-08T08:41:44.620Z,102246.19
2023-05-08T08:44:11.203Z,102247.91
2023-05-08T08:49:09.678Z,102249.47
2023-05-08T08:51:50.403Z,102248.47
2023-05-08T08:54:23.271Z,102251.16
2023-05-08T08:56:52.021Z,102249.31
2023-05-08T08:59:19.706Z,102244.75
2023-05-08T09:01:53.699Z,102250.16
2023-05-08T09:04:20.399Z,102245.59
2023-05-08T09:06:49.412Z,102248.31
2023-05-08T09:09:16.457Z,102244.75
2023-05-08T09:11:46.009Z,102242.78
2023-05-08T09:14:12.912Z,102251.88
2023-05-08T09:16:40.165Z,102241.09
2023-05-08T09:19:07.382Z,102247.34
2023-05-08T09:21:34.442Z,102251.72
2023-05-08T09:24:03.215Z,102249.88
2023-05-08T09:26:40.228Z,102254.28
2023-05-08T09:29:17.992Z,102247.91
2023-05-08T09:31:50.137Z,102243.34
2023-05-08T09:34:31.189Z,102255.00
2023-05-08T09:37:09.552Z,102257.53
2023-05-08T09:39:36.214Z,102257.41
2023-05-08T09:42:04.589Z,102250.16
2023-05-08T09:44:46.079Z,102248.31
2023-05-08T09:47:17.869Z,102248.31
2023-05-08T09:50:10.114Z,102241.91
2023-05-08T09:52:38.083Z,102247.16
2023-05-08T09:55:08.985Z,102249.84
2023-05-08T09:57:41.036Z,102252.44
2023-05-08T10:00:10.359Z,102255.97
2023-05-08T10:02:38.682Z,102254.97
2023-05-08T10:05:23.873Z,102254.97
2023-05-08T10:07:50.841Z,102251.28
2023-05-08T10:10:26.138Z,102254.97
2023-05-08T10:12:55.070Z,102257.56
2023-05-08T10:15:28.916Z,102252.00
2023-05-08T10:18:02.320Z,102249.31
2023-05-08T10:20:30.774Z,102251.00
2023-05-08T10:22:58.308Z,102252.69
2023-05-08T10:25:26.325Z,102248.16
2023-05-08T10:28:11.835Z,102252.69
2023-05-08T10:30:42.846Z,102255.25
2023-05-08T10:33:10.962Z,102250.72
2023-05-08T10:35:37.802Z,102241.78
2023-05-08T10:38:04.977Z,102247.00
2023-05-08T10:40:31.622Z,102253.25
2023-05-08T10:42:59.697Z,102249.59
2023-05-08T10:45:27.006Z,102245.03
2023-05-08T10:47:59.568Z,102249.44
2023-05-08T10:50:57.946Z,102239.63
2023-05-08T10:53:33.429Z,102249.28
2023-05-08T10:56:00.177Z,102242.91
2023-05-08T10:58:34.458Z,102233.63
2023-05-08T11:01:01.216Z,102233.63
2023-05-08T11:03:33.126Z,102239.59
2023-05-08T11:06:01.426Z,102226.81
2023-05-08T11:08:29.729Z,102233.91
2023-05-08T11:11:07.888Z,102234.75
2023-05-08T11:13:40.854Z,102234.75
2023-05-08T11:16:08.169Z,102234.75
2023-05-08T11:18:48.595Z,102228.38
2023-05-08T11:21:22.022Z,102221.13
2023-05-08T11:23:57.897Z,102218.41
2023-05-08T11:26:40.466Z,102211.19
2023-05-08T11:29:16.854Z,102216.59
2023-05-08T11:31:51.147Z,102210.19
2023-05-08T11:34:42.957Z,102203.09
2023-05-08T11:37:29.326Z,102203.94
2023-05-08T11:40:34.417Z,102204.78
2023-05-08T11:43:19.895Z,102203.78
2023-05-08T11:45:47.206Z,102199.94
2023-05-08T11:48:16.120Z,102204.34
2023-05-08T11:50:42.761Z,102200.63
2023-05-08T11:53:09.475Z,102189.84
2023-05-08T11:55:36.602Z,102191.53
2023-05-08T11:58:12.122Z,102194.22
2023-05-08T12:00:45.909Z,102193.25
2023-05-08T12:03:21.175Z,102196.78
2023-05-08T12:05:49.596Z,102194.09
2023-05-08T12:08:17.100Z,102197.66
2023-05-08T12:10:46.967Z,102197.81
2023-05-08T12:13:18.085Z,102194.94
2023-05-08T12:15:45.923Z,102189.53
2023-05-08T12:18:12.882Z,102195.78
2023-05-08T12:20:39.736Z,102192.25
2023-05-08T12:23:06.286Z,102193.09
2023-05-08T12:25:32.890Z,102187.69
2023-05-08T12:28:02.657Z,102189.38
2023-05-08T12:30:29.779Z,102184.69
2023-05-08T12:32:56.609Z,102181.88
2023-05-08T12:35:24.116Z,102187.16
2023-05-08T12:37:52.426Z,102185.28
2023-05-08T12:40:46.077Z,102186.13
2023-05-08T12:43:12.740Z,102167.78
2023-05-08T12:45:41.845Z,102163.06
2023-05-08T12:48:10.637Z,102162.94
2023-05-08T12:50:41.711Z,102169.88
2023-05-08T12:53:16.353Z,102158.09
2023-05-08T12:55:55.949Z,102161.47
2023-05-08T12:58:27.820Z,102151.41
2023-05-08T13:01:11.955Z,102159.34
2023-05-08T13:03:39.594Z,102149.38
2023-05-08T13:06:06.402Z,102148.53
2023-05-08T13:08:35.437Z,102142.13
2023-05-08T13:11:03.963Z,102143.81
2023-05-08T13:13:32.458Z,102135.72
2023-05-08T13:16:03.209Z,102151.06
2023-05-08T13:18:30.506Z,102147.41
2023-05-08T13:20:57.173Z,102151.06
2023-05-08T13:23:24.259Z,102151.06
2023-05-08T13:25:51.673Z,102141.13
2023-05-08T13:28:18.237Z,102141.13
2023-05-08T13:30:44.790Z,102150.94
2023-05-08T13:33:11.396Z,102140.13
2023-05-08T13:35:38.036Z,102137.44
2023-05-08T13:38:04.723Z,102146.38
2023-05-08T13:40:31.350Z,102142.69
2023-05-08T13:42:57.920Z,102139.13
2023-05-08T13:45:24.530Z,102139.13
2023-05-08T13:47:51.388Z,102139.13
2023-05-08T13:50:21.554Z,102139.97
2023-05-08T13:52:48.692Z,102144.38
2023-05-08T13:55:15.980Z,102142.69
2023-05-08T13:57:43.063Z,102136.25
2023-05-08T14:00:10.319Z,102138.00
2023-05-08T14:02:37.852Z,102131.72
2023-05-08T14:05:07.941Z,102130.72
2023-05-08T14:07:35.387Z,102126.16
2023-05-08T14:10:02.208Z,102121.63
2023-05-08T14:12:28.829Z,102130.56
2023-05-08T14:14:55.834Z,102126.84
2023-05-08T14:17:22.412Z,102115.19
2023-05-08T14:19:48.951Z,102127.69
2023-05-08T14:22:15.596Z,102129.56
2023-05-08T14:24:42.147Z,102122.28
2023-05-08T14:27:08.857Z,102124.03
2023-05-08T14:29:35.797Z,102126.72
2023-05-08T14:32:02.418Z,102121.31
2023-05-08T14:34:28.956Z,102118.63
2023-05-08T14:36:55.615Z,102121.31
2023-05-08T14:39:22.131Z,102128.41
2023-05-08T14:42:10.338Z,102116.59
2023-05-08T14:44:35.329Z,102119.28
2023-05-08T14:47:01.952Z,102113.91
2023-05-08T14:49:37.504Z,102114.75
2023-05-08T14:52:05.967Z,102120.16
2023-05-08T14:54:32.642Z,102118.28
2023-05-08T14:56:59.569Z,102110.19
2023-05-08T14:59:26.141Z,102114.59
2023-05-08T15:01:52.744Z,102116.31
2023-05-08T15:04:19.464Z,102110.19
2023-05-08T15:06:46.174Z,102108.34
2023-05-08T15:09:12.805Z,102099.25
2023-05-08T15:11:39.456Z,102107.34
2023-05-08T15:14:06.178Z,102098.22
2023-05-08T15:16:32.804Z,102106.34
2023-05-08T15:19:00.156Z,102108.03
2023-05-08T15:21:27.551Z,102112.59
2023-05-08T15:23:55.662Z,102104.34
2023-05-08T15:26:23.019Z,102112.47
2023-05-08T15:28:49.770Z,102116.84
2023-05-08T15:31:16.770Z,102116.97
2023-05-08T15:33:45.038Z,102107.19
2023-05-08T15:36:15.473Z,102108.03
2023-05-08T15:38:42.548Z,102109.88
2023-05-08T15:41:15.129Z,102116.97
2023-05-08T15:43:42.818Z,102110.72
2023-05-08T15:46:09.666Z,102116.13
2023-05-08T15:48:36.272Z,102111.75
2023-05-08T15:51:02.869Z,102113.59
2023-05-08T15:53:29.405Z,102115.44
2023-05-08T15:55:57.106Z,102116.31
2023-05-08T15:58:24.093Z,102124.41
2023-05-08T16:00:50.896Z,102126.09
2023-05-08T16:03:17.811Z,102122.38
2023-05-08T16:05:44.656Z,102127.78
2023-05-08T16:08:12.805Z,102131.38
2023-05-08T16:10:41.023Z,102117.69
2023-05-08T16:13:08.267Z,102118.41
2023-05-08T16:15:35.088Z,102122.81
2023-05-08T16:18:01.991Z,102118.06
2023-05-08T16:20:28.781Z,102114.53
2023-05-08T16:22:56.157Z,102113.38
2023-05-08T16:25:23.219Z,102108.81
2023-05-08T16:27:50.296Z,102114.91
2023-05-08T16:30:17.392Z,102105.97
2023-05-08T16:32:47.065Z,102106.81
2023-05-08T16:35:14.726Z,102103.13
2023-05-08T16:37:41.994Z,102086.06
2023-05-08T16:40:09.807Z,102090.59
2023-05-08T16:42:37.086Z,102094.16
2023-05-08T16:45:04.885Z,102086.91
2023-05-08T16:47:31.485Z,102086.91
2023-05-08T16:49:58.422Z,102089.59
2023-05-08T16:52:24.986Z,102080.66
2023-05-08T16:54:51.838Z,102085.06
2023-05-08T16:57:18.502Z,102076.94
2023-05-08T16:59:45.043Z,102080.50
2023-05-08T17:02:15.702Z,102081.50
2023-05-08T17:04:42.250Z,102082.47
2023-05-08T17:07:08.828Z,102087.03
2023-05-08T17:09:35.410Z,102080.78
2023-05-08T17:12:02.263Z,102097.00
2023-05-08T17:14:28.787Z,102096.88
2023-05-08T17:16:55.446Z,102098.56
2023-05-08T17:19:22.160Z,102103.97
2023-05-08T17:21:48.750Z,102094.84
2023-05-08T17:24:15.265Z,102099.25
2023-05-08T17:26:41.914Z,102097.38
2023-05-08T17:29:08.534Z,102089.16
2023-05-08T17:31:36.238Z,102080.03
2023-05-08T17:34:03.020Z,102074.63
2023-05-08T17:36:29.712Z,102074.63
2023-05-08T17:38:56.286Z,102083.56
2023-05-08T17:41:22.835Z,102082.56
2023-05-08T17:43:49.358Z,102081.41
2023-05-08T17:46:16.012Z,102074.31
2023-05-08T17:48:42.660Z,102077.69
2023-05-08T17:51:12.201Z,102079.25
2023-05-08T17:53:39.552Z,102073.84
2023-05-08T17:56:06.778Z,102075.41
2023-05-08T17:58:33.318Z,102075.41
2023-05-08T18:01:00.008Z,102077.94
2023-05-08T18:03:26.656Z,102071.53
2023-05-08T18:05:53.286Z,102076.78
2023-05-08T18:08:19.818Z,102071.03
2023-05-08T18:10:46.327Z,102070.19
2023-05-08T18:13:13.041Z,102071.91
2023-05-08T18:15:40.548Z,102063.81
2023-05-08T18:18:07.157Z,102063.81
2023-05-08T18:20:33.796Z,102069.22
2023-05-08T18:23:00.420Z,102076.44
2023-05-08T18:25:26.939Z,102087.25
2023-05-08T18:27:53.637Z,102080.16
2023-05-08T18:30:20.535Z,102082.88
2023-05-08T18:32:47.152Z,102072.91
2023-05-08T18:35:13.896Z,102067.50
2023-05-08T18:37:40.452Z,102060.22
2023-05-08T18:40:07.701Z,102055.84
2023-05-08T18:42:34.230Z,102044.34
2023-05-08T18:45:00.971Z,102046.88
2023-05-08T18:47:27.594Z,102050.59
2023-05-08T18:49:54.125Z,102057.69
2023-05-08T18:52:20.629Z,102064.78
2023-05-08T18:54:47.220Z,102064.13
2023-05-08T18:57:13.815Z,102065.97
2023-05-08T18:59:40.484Z,102065.25
2023-05-08T19:02:07.018Z,102058.16
2023-05-08T19:04:33.576Z,102068.97
2023-05-08T19:07:00.867Z,102074.38
2023-05-08T19:09:27.657Z,102065.44
2023-05-08T19:11:54.253Z,102060.88
2023-05-08T19:14:20.784Z,102063.72
2023-05-08T19:16:47.277Z,102071.81
2023-05-08T19:19:13.942Z,102070.00
2023-05-08T19:21:40.492Z,102074.53
2023-05-08T19:24:07.519Z,102066.59
2023-05-08T19:26:34.045Z,102071.81
2023-05-08T19:29:00.587Z,102072.00
2023-05-08T19:31:27.136Z,102074.69
2023-05-08T19:33:54.637Z,102083.94
2023-05-08T19:36:21.212Z,102087.66
2023-05-08T19:38:47.734Z,102089.34
2023-05-08T19:41:14.278Z,102093.91
2023-05-08T19:43:40.795Z,102089.34
2023-05-08T19:46:07.389Z,102090.22
2023-05-08T19:48:33.945Z,102094.75
2023-05-08T19:51:07.780Z,102097.63
2023-05-08T19:53:34.864Z,102095.78
2023-05-08T19:56:01.422Z,102094.94
2023-05-08T19:58:27.980Z,102093.25
2023-05-08T20:00:54.617Z,102092.38
2023-05-08T20:03:21.286Z,102096.94
2023-05-08T20:05:48.024Z,102099.94
2023-05-08T20:08:14.682Z,102101.81
2023-05-08T20:10:41.400Z,102102.66
2023-05-08T20:13:07.999Z,102103.66
2023-05-08T20:15:34.573Z,102104.66
2023-05-08T20:18:01.303Z,102094.84
2023-05-08T20:20:29.618Z,102093.16
2023-05-08T20:22:56.374Z,102088.75
2023-05-08T20:25:23.075Z,102081.50
2023-05-08T20:27:49.696Z,102081.34
2023-05-08T20:30:16.505Z,102083.03
2023-05-08T20:32:43.317Z,102087.44
2023-05-08T20:35:09.932Z,102082.88
2023-05-08T20:37:43.216Z,102089.16
2023-05-08T20:40:10.265Z,102089.16
2023-05-08T20:42:36.931Z,102089.16
2023-05-08T20:45:03.864Z,102084.59
2023-05-08T20:47:30.477Z,102076.47
2023-05-08T20:50:00.226Z,102080.19
2023-05-08T20:52:26.754Z,102082.03
2023-05-08T20:54:53.329Z,102082.03
2023-05-08T20:57:19.870Z,102079.47
2023-05-08T20:59:47.284Z,102083.03
2023-05-08T21:02:14.154Z,102068.66
2023-05-08T21:04:40.837Z,102068.66
2023-05-08T21:07:07.432Z,102058.88
2023-05-08T21:09:34.150Z,102068.84
2023-05-08T21:12:00.706Z,102070.69
2023-05-08T21:14:27.243Z,102072.56
2023-05-08T21:16:56.630Z,102055.47
2023-05-08T21:19:23.769Z,102057.31
2023-05-08T21:21:50.348Z,102046.66
2023-05-08T21:24:17.129Z,102050.38
2023-05-08T21:26:43.671Z,102048.53
2023-05-08T21:29:10.956Z,102044.97
2023-05-08T21:31:37.654Z,102045.13
2023-05-08T21:34:04.334Z,102043.25
2023-05-08T21:36:32.147Z,102032.63
2023-05-08T21:38:58.729Z,102036.34
2023-05-08T21:41:25.321Z,102038.19
2023-05-08T21:43:54.964Z,102034.63
2023-05-08T21:46:21.655Z,102027.50
2023-05-08T21:48:48.197Z,102020.41
2023-05-08T21:51:14.828Z,102019.56
2023-05-08T21:53:41.422Z,102017.88
2023-05-08T21:56:08.002Z,102006.19
2023-05-08T21:58:34.548Z,102002.66
2023-05-08T22:01:01.390Z,102002.81
2023-05-08T22:03:28.056Z,101998.25
2023-05-08T22:05:55.551Z,101993.03
2023-05-08T22:08:22.129Z,101984.91
2023-05-08T22:10:48.708Z,101976.94
2023-05-08T22:13:15.305Z,101987.75
2023-05-08T22:15:42.535Z,101975.25
2023-05-08T22:18:09.207Z,101970.69
2023-05-08T22:20:35.827Z,101969.84
2023-05-08T22:23:03.581Z,101961.06
2023-05-08T22:25:30.416Z,101967.31
2023-05-08T22:27:57.196Z,101965.59
2023-05-08T22:30:23.756Z,101958.38
2023-05-08T22:32:56.194Z,101954.13
2023-05-08T22:35:24.517Z,101958.69
2023-05-08T22:37:52.399Z,101953.28
2023-05-08T22:40:19.418Z,101949.72
2023-05-08T22:42:46.602Z,101947.16
2023-05-08T22:45:14.336Z,101946.31
2023-05-08T22:47:41.320Z,101943.63
2023-05-08T22:50:09.178Z,101933.81
2023-05-08T22:52:36.619Z,101924.03
2023-05-08T22:55:03.900Z,101927.72
2023-05-08T22:57:30.772Z,101924.16
2023-05-08T22:59:57.304Z,101919.59
2023-05-08T23:02:24.058Z,101907.97
2023-05-08T23:04:50.711Z,101900.03
2023-05-08T23:07:17.363Z,101901.88
2023-05-08T23:09:43.896Z,101904.59
2023-05-08T23:12:10.449Z,101891.06
2023-05-08T23:14:36.949Z,101889.38
2023-05-08T23:17:03.586Z,101885.81
2023-05-08T23:19:30.150Z,101889.38
2023-05-08T23:21:56.661Z,101880.41
2023-05-08T23:24:23.244Z,101887.84
2023-05-08T23:26:49.911Z,101883.44
2023-05-08T23:29:16.609Z,101876.19
2023-05-08T23:31:43.269Z,101873.50
2023-05-08T23:34:09.877Z,101873.63
2023-05-08T23:36:36.458Z,101872.66
2023-05-08T23:39:03.143Z,101868.22
2023-05-08T23:41:29.652Z,101865.69
2023-05-08T23:43:56.188Z,101870.25
2023-05-08T23:46:22.721Z,101872.09
2023-05-08T23:48:49.268Z,101873.97
2023-05-08T23:51:15.770Z,101863.16
2023-05-08T23:53:42.301Z,101862.31
2023-05-08T23:56:09.055Z,101865.16
2023-05-08T23:58:35.591Z,101857.06
